sensor_id;sensor_type;location;lat;lon;timestamp;pressure;altitude;pressure_sealevel;temperature;humidity
37634;BME280;32048;49.902;22.508;2022-09-02T00:01:28;99163.91;;;5.89;100.00
37634;BME280;32048;49.902;22.508;2022-09-02T00:04:01;99168.28;;;5.90;100.00
37634;BME280;32048;49.902;22.508;2022-09-02T00:06:29;99169.25;;;5.86;100.00
37634;BME280;32048;49.902;22.508;2022-09-02T00:08:58;99168.34;;;5.87;100.00
37634;BME280;32048;49.902;22.508;2022-09-02T00:11:27;99164.06;;;5.82;100.00
37634;BME280;32048;49.902;22.508;2022-09-02T00:13:55;99158.94;;;5.79;100.00
37634;BME280;32048;49.902;22.508;2022-09-02T00:16:23;99156.44;;;5.75;100.00
37634;BME280;32048;49.902;22.508;2022-09-02T00:18:51;99159.94;;;5.74;100.00
37634;BME280;32048;49.902;22.508;2022-09-02T00:21:20;99162.63;;;5.71;100.00
37634;BME280;32048;49.902;22.508;2022-09-02T00:23:48;99161.97;;;5.62;100.00
37634;BME280;32048;49.902;22.508;2022-09-02T00:26:15;99162.88;;;5.61;100.00
37634;BME280;32048;49.902;22.508;2022-09-02T00:28:42;99164.69;;;5.58;100.00
37634;BME280;32048;49.902;22.508;2022-09-02T00:31:22;99156.06;;;5.54;100.00
37634;BME280;32048;49.902;22.508;2022-09-02T00:33:49;99157.88;;;5.52;100.00
37634;BME280;32048;49.902;22.508;2022-09-02T00:36:17;99165.84;;;5.48;100.00
37634;BME280;32048;49.902;22.508;2022-09-02T00:38:44;99166.78;;;5.45;100.00
37634;BME280;32048;49.902;22.508;2022-09-02T00:41:12;99162.47;;;5.42;100.00
37634;BME280;32048;49.902;22.508;2022-09-02T00:43:43;99161.69;;;5.39;100.00
37634;BME280;32048;49.902;22.508;2022-09-02T00:46:12;99151.34;;;5.33;100.00
37634;BME280;32048;49.902;22.508;2022-09-02T00:48:52;99152.28;;;5.32;100.00
37634;BME280;32048;49.902;22.508;2022-09-02T00:51:22;99154.88;;;5.32;100.00
37634;BME280;32048;49.902;22.508;2022-09-02T00:53:50;99155.84;;;5.28;100.00
37634;BME280;32048;49.902;22.508;2022-09-02T00:56:24;99155.03;;;5.26;100.00
37634;BME280;32048;49.902;22.508;2022-09-02T00:58:53;99150.72;;;5.25;100.00
37634;BME280;32048;49.902;22.508;2022-09-02T01:01:21;99157.75;;;5.21;100.00
37634;BME280;32048;49.902;22.508;2022-09-02T01:03:49;99155.22;;;5.18;100.00
37634;BME280;32048;49.902;22.508;2022-09-02T01:06:20;99157.03;;;5.16;100.00
37634;BME280;32048;49.902;22.508;2022-09-02T01:09:03;99157.03;;;5.16;100.00
37634;BME280;32048;49.902;22.508;2022-09-02T01:11:45;99158.75;;;5.15;100.00
37634;BME280;32048;49.902;22.508;2022-09-02T01:14:15;99150.19;;;5.09;100.00
37634;BME280;32048;49.902;22.508;2022-09-02T01:16:48;99146.78;;;5.05;100.00
37634;BME280;32048;49.902;22.508;2022-09-02T01:19:49;99153.91;;;5.00;100.00
37634;BME280;32048;49.902;22.508;2022-09-02T01:22:16;99163.59;;;4.95;100.00
37634;BME280;32048;49.902;22.508;2022-09-02T01:24:44;99158.34;;;4.95;100.00
37634;BME280;32048;49.902;22.508;2022-09-02T01:27:14;99159.25;;;4.94;100.00
37634;BME280;32048;49.902;22.508;2022-09-02T01:29:42;99156.66;;;4.92;100.00
37634;BME280;32048;49.902;22.508;2022-09-02T01:32:10;99157.63;;;4.88;100.00
37634;BME280;32048;49.902;22.508;2022-09-02T01:34:37;99166.41;;;4.86;100.00
37634;BME280;32048;49.902;22.508;2022-09-02T01:37:04;99161.25;;;4.83;100.00
37634;BME280;32048;49.902;22.508;2022-09-02T01:39:31;99159.59;;;4.78;100.00
37634;BME280;32048;49.902;22.508;2022-09-02T01:41:58;99159.69;;;4.75;100.00
37634;BME280;32048;49.902;22.508;2022-09-02T01:44:27;99155.34;;;4.73;100.00
37634;BME280;32048;49.902;22.508;2022-09-02T01:46:54;99155.34;;;4.73;100.00
37634;BME280;32048;49.902;22.508;2022-09-02T01:49:22;99162.31;;;4.74;100.00
37634;BME280;32048;49.902;22.508;2022-09-02T01:51:53;99162.31;;;4.74;100.00
37634;BME280;32048;49.902;22.508;2022-09-02T01:54:21;99156.25;;;4.72;100.00
37634;BME280;32048;49.902;22.508;2022-09-02T01:56:48;99164.97;;;4.72;100.00
37634;BME280;32048;49.902;22.508;2022-09-02T01:59:15;99165.03;;;4.71;100.00
37634;BME280;32048;49.902;22.508;2022-09-02T02:01:44;99165.03;;;4.71;100.00
37634;BME280;32048;49.902;22.508;2022-09-02T02:04:11;99168.50;;;4.70;100.00
37634;BME280;32048;49.902;22.508;2022-09-02T02:06:41;99165.91;;;4.68;100.00
37634;BME280;32048;49.902;22.508;2022-09-02T02:09:10;99167.69;;;4.66;100.00
37634;BME280;32048;49.902;22.508;2022-09-02T02:11:37;99158.31;;;4.57;100.00
37634;BME280;32048;49.902;22.508;2022-09-02T02:14:04;99155.66;;;4.59;100.00
37634;BME280;32048;49.902;22.508;2022-09-02T02:16:31;99159.19;;;4.56;100.00
37634;BME280;32048;49.902;22.508;2022-09-02T02:18:58;99155.75;;;4.54;100.00
37634;BME280;32048;49.902;22.508;2022-09-02T02:21:26;99154.91;;;4.52;100.00
37634;BME280;32048;49.902;22.508;2022-09-02T02:23:53;99154.06;;;4.52;100.00
37634;BME280;32048;49.902;22.508;2022-09-02T02:26:20;99153.25;;;4.50;100.00
37634;BME280;32048;49.902;22.508;2022-09-02T02:28:47;99155.00;;;4.49;100.00
37634;BME280;32048;49.902;22.508;2022-09-02T02:31:14;99154.09;;;4.50;100.00
37634;BME280;32048;49.902;22.508;2022-09-02T02:33:41;99159.41;;;4.47;100.00
37634;BME280;32048;49.902;22.508;2022-09-02T02:36:09;99160.34;;;4.43;100.00
37634;BME280;32048;49.902;22.508;2022-09-02T02:38:36;99164.75;;;4.41;100.00
37634;BME280;32048;49.902;22.508;2022-09-02T02:41:04;99156.13;;;4.37;100.00
37634;BME280;32048;49.902;22.508;2022-09-02T02:43:35;99161.38;;;4.36;100.00
37634;BME280;32048;49.902;22.508;2022-09-02T02:46:03;99159.63;;;4.36;100.00
37634;BME280;32048;49.902;22.508;2022-09-02T02:48:30;99161.44;;;4.33;100.00
37634;BME280;32048;49.902;22.508;2022-09-02T02:50:59;99164.09;;;4.30;100.00
37634;BME280;32048;49.902;22.508;2022-09-02T02:53:26;99165.94;;;4.26;100.00
37634;BME280;32048;49.902;22.508;2022-09-02T02:55:55;99160.69;;;4.26;100.00
37634;BME280;32048;49.902;22.508;2022-09-02T02:58:22;99158.19;;;4.22;100.00
37634;BME280;32048;49.902;22.508;2022-09-02T03:00:50;99168.72;;;4.17;100.00
37634;BME280;32048;49.902;22.508;2022-09-02T03:03:17;99167.84;;;4.16;100.00
37634;BME280;32048;49.902;22.508;2022-09-02T03:05:46;99166.13;;;4.17;100.00
37634;BME280;32048;49.902;22.508;2022-09-02T03:08:14;99158.34;;;4.12;100.00
37634;BME280;32048;49.902;22.508;2022-09-02T03:10:42;99160.16;;;4.10;100.00
37634;BME280;32048;49.902;22.508;2022-09-02T03:13:10;99161.94;;;4.07;100.00
37634;BME280;32048;49.902;22.508;2022-09-02T03:15:38;99161.09;;;4.05;100.00
37634;BME280;32048;49.902;22.508;2022-09-02T03:18:05;99161.13;;;4.03;100.00
37634;BME280;32048;49.902;22.508;2022-09-02T03:20:33;99161.19;;;4.00;100.00
37634;BME280;32048;49.902;22.508;2022-09-02T03:23:00;99154.28;;;3.98;100.00
37634;BME280;32048;49.902;22.508;2022-09-02T03:25:29;99151.75;;;3.93;100.00
37634;BME280;32048;49.902;22.508;2022-09-02T03:28:02;99157.84;;;3.92;100.00
37634;BME280;32048;49.902;22.508;2022-09-02T03:30:30;99161.31;;;3.94;100.00
37634;BME280;32048;49.902;22.508;2022-09-02T03:32:59;99169.13;;;3.95;100.00
37634;BME280;32048;49.902;22.508;2022-09-02T03:35:31;99170.06;;;3.91;100.00
37634;BME280;32048;49.902;22.508;2022-09-02T03:37:59;99174.44;;;3.91;100.00
37634;BME280;32048;49.902;22.508;2022-09-02T03:40:27;99169.22;;;3.91;100.00
37634;BME280;32048;49.902;22.508;2022-09-02T03:42:55;99173.53;;;3.92;100.00
37634;BME280;32048;49.902;22.508;2022-09-02T03:45:26;99179.69;;;3.88;100.00
37634;BME280;32048;49.902;22.508;2022-09-02T03:47:53;99181.50;;;3.86;100.00
37634;BME280;32048;49.902;22.508;2022-09-02T03:50:24;99174.56;;;3.83;100.00
37634;BME280;32048;49.902;22.508;2022-09-02T03:52:51;99182.38;;;3.86;100.00
37634;BME280;32048;49.902;22.508;2022-09-02T03:55:19;99186.66;;;3.90;100.00
37634;BME280;32048;49.902;22.508;2022-09-02T03:57:46;99184.78;;;3.97;100.00
37634;BME280;32048;49.902;22.508;2022-09-02T04:00:16;99192.41;;;4.08;100.00
37634;BME280;32048;49.902;22.508;2022-09-02T04:02:43;99190.50;;;4.16;100.00
37634;BME280;32048;49.902;22.508;2022-09-02T04:05:15;99189.56;;;4.22;100.00
37634;BME280;32048;49.902;22.508;2022-09-02T04:07:42;99193.78;;;4.27;100.00
37634;BME280;32048;49.902;22.508;2022-09-02T04:10:13;99192.91;;;4.28;100.00
37634;BME280;32048;49.902;22.508;2022-09-02T04:12:41;99201.56;;;4.30;100.00
37634;BME280;32048;49.902;22.508;2022-09-02T04:15:10;99203.22;;;4.34;100.00
37634;BME280;32048;49.902;22.508;2022-09-02T04:17:39;99203.94;;;4.44;100.00
37634;BME280;32048;49.902;22.508;2022-09-02T04:20:09;99191.34;;;4.62;100.00
37634;BME280;32048;49.902;22.508;2022-09-02T04:22:37;99198.53;;;4.92;100.00
37634;BME280;32048;49.902;22.508;2022-09-02T04:25:05;99194.16;;;5.32;100.00
37634;BME280;32048;49.902;22.508;2022-09-02T04:27:33;99199.31;;;5.71;100.00
37634;BME280;32048;49.902;22.508;2022-09-02T04:30:00;99191.31;;;6.11;100.00
37634;BME280;32048;49.902;22.508;2022-09-02T04:32:27;99205.53;;;6.66;100.00
37634;BME280;32048;49.902;22.508;2022-09-02T04:34:56;99203.06;;;7.20;100.00
37634;BME280;32048;49.902;22.508;2022-09-02T04:37:22;99206.59;;;7.74;100.00
37634;BME280;32048;49.902;22.508;2022-09-02T04:39:49;99212.75;;;8.24;100.00
37634;BME280;32048;49.902;22.508;2022-09-02T04:42:18;99212.84;;;8.71;100.00
37634;BME280;32048;49.902;22.508;2022-09-02T04:44:45;99217.03;;;9.23;100.00
37634;BME280;32048;49.902;22.508;2022-09-02T04:47:12;99216.16;;;9.66;100.00
37634;BME280;32048;49.902;22.508;2022-09-02T04:49:39;99207.84;;;9.97;100.00
37634;BME280;32048;49.902;22.508;2022-09-02T04:52:08;99213.50;;;10.31;100.00
37634;BME280;32048;49.902;22.508;2022-09-02T04:54:36;99220.22;;;10.77;100.00
37634;BME280;32048;49.902;22.508;2022-09-02T04:57:03;99212.28;;;11.34;99.25
37634;BME280;32048;49.902;22.508;2022-09-02T04:59:32;99214.09;;;12.06;95.97
37634;BME280;32048;49.902;22.508;2022-09-02T05:02:03;99212.47;;;12.55;87.77
37634;BME280;32048;49.902;22.508;2022-09-02T05:04:31;99208.97;;;13.03;86.06
37634;BME280;32048;49.902;22.508;2022-09-02T05:06:59;99213.16;;;13.41;81.58
37634;BME280;32048;49.902;22.508;2022-09-02T05:09:30;99208.78;;;13.86;79.63
37634;BME280;32048;49.902;22.508;2022-09-02T05:11:57;99207.28;;;14.26;77.35
37634;BME280;32048;49.902;22.508;2022-09-02T05:14:24;99204.72;;;14.69;75.15
37634;BME280;32048;49.902;22.508;2022-09-02T05:16:51;99206.28;;;15.29;73.57
37634;BME280;32048;49.902;22.508;2022-09-02T05:19:21;99209.09;;;15.95;71.02
37634;BME280;32048;49.902;22.508;2022-09-02T05:21:50;99212.81;;;16.58;65.01
37634;BME280;32048;49.902;22.508;2022-09-02T05:24:21;99218.47;;;17.04;63.54
37634;BME280;32048;49.902;22.508;2022-09-02T05:26:52;99207.03;;;17.52;61.49
37634;BME280;32048;49.902;22.508;2022-09-02T05:29:19;99214.19;;;18.00;58.59
37634;BME280;32048;49.902;22.508;2022-09-02T05:31:47;99218.72;;;18.46;54.12
37634;BME280;32048;49.902;22.508;2022-09-02T05:34:15;99221.78;;;18.64;52.68
37634;BME280;32048;49.902;22.508;2022-09-02T05:36:43;99211.28;;;18.49;53.20
37634;BME280;32048;49.902;22.508;2022-09-02T05:39:10;99211.72;;;18.79;53.65
37634;BME280;32048;49.902;22.508;2022-09-02T05:41:37;99214.03;;;19.28;51.52
37634;BME280;32048;49.902;22.508;2022-09-02T05:44:05;99214.22;;;19.48;50.84
37634;BME280;32048;49.902;22.508;2022-09-02T05:46:33;99211.41;;;19.72;49.18
37634;BME280;32048;49.902;22.508;2022-09-02T05:49:01;99216.91;;;20.24;48.58
37634;BME280;32048;49.902;22.508;2022-09-02T05:54:21;99213.34;;;20.76;44.68
37634;BME280;32048;49.902;22.508;2022-09-02T05:56:51;99211.25;;;20.38;46.07
37634;BME280;32048;49.902;22.508;2022-09-02T05:59:21;99207.88;;;20.46;46.62
37634;BME280;32048;49.902;22.508;2022-09-02T06:01:48;99204.97;;;20.70;45.00
37634;BME280;32048;49.902;22.508;2022-09-02T06:04:16;99205.75;;;20.91;45.58
37634;BME280;32048;49.902;22.508;2022-09-02T06:06:44;99205.72;;;21.12;42.95
37634;BME280;32048;49.902;22.508;2022-09-02T06:09:14;99208.38;;;20.72;43.76
37634;BME280;32048;49.902;22.508;2022-09-02T06:11:43;99205.03;;;20.59;45.05
37634;BME280;32048;49.902;22.508;2022-09-02T06:14:12;99200.75;;;20.14;44.39
37634;BME280;32048;49.902;22.508;2022-09-02T06:16:40;99203.38;;;19.61;46.71
37634;BME280;32048;49.902;22.508;2022-09-02T06:19:08;99204.31;;;19.05;47.99
37634;BME280;32048;49.902;22.508;2022-09-02T06:21:36;99205.25;;;18.70;50.31
37634;BME280;32048;49.902;22.508;2022-09-02T06:24:09;99206.25;;;18.80;51.02
37634;BME280;32048;49.902;22.508;2022-09-02T06:26:38;99196.03;;;19.30;50.00
37634;BME280;32048;49.902;22.508;2022-09-02T06:29:06;99195.44;;;19.70;50.00
37634;BME280;32048;49.902;22.508;2022-09-02T06:31:34;99206.84;;;20.37;47.60
37634;BME280;32048;49.902;22.508;2022-09-02T06:34:03;99204.75;;;20.62;45.03
37634;BME280;32048;49.902;22.508;2022-09-02T06:36:30;99203.84;;;20.72;45.69
37634;BME280;32048;49.902;22.508;2022-09-02T06:38:58;99210.31;;;20.70;45.55
37634;BME280;32048;49.902;22.508;2022-09-02T06:41:28;99207.41;;;21.13;44.65
37634;BME280;32048;49.902;22.508;2022-09-02T06:43:58;99210.91;;;21.04;44.42
37634;BME280;32048;49.902;22.508;2022-09-02T06:46:35;99208.34;;;21.43;43.76
37634;BME280;32048;49.902;22.508;2022-09-02T06:49:05;99203.31;;;21.69;42.57
37634;BME280;32048;49.902;22.508;2022-09-02T06:51:39;99204.34;;;22.07;43.43
37634;BME280;32048;49.902;22.508;2022-09-02T06:54:09;99198.16;;;22.73;41.16
37634;BME280;32048;49.902;22.508;2022-09-02T06:56:40;99197.81;;;22.86;40.46
37634;BME280;32048;49.902;22.508;2022-09-02T06:59:14;99202.41;;;22.66;40.48
37634;BME280;32048;49.902;22.508;2022-09-02T07:01:42;99201.50;;;22.38;40.33
37634;BME280;32048;49.902;22.508;2022-09-02T07:04:10;99193.72;;;22.25;41.63
37634;BME280;32048;49.902;22.508;2022-09-02T07:06:56;99201.00;;;23.09;40.85
37634;BME280;32048;49.902;22.508;2022-09-02T07:09:25;99195.56;;;24.10;39.56
37634;BME280;32048;49.902;22.508;2022-09-02T07:12:01;99197.38;;;24.98;35.80
37634;BME280;32048;49.902;22.508;2022-09-02T07:14:38;99199.13;;;25.58;34.62
37634;BME280;32048;49.902;22.508;2022-09-02T07:17:07;99195.50;;;25.91;34.20
37634;BME280;32048;49.902;22.508;2022-09-02T07:19:36;99191.97;;;26.40;34.03
37634;BME280;32048;49.902;22.508;2022-09-02T07:22:04;99184.91;;;27.03;32.31
37634;BME280;32048;49.902;22.508;2022-09-02T07:24:32;99194.41;;;27.47;31.23
37634;BME280;32048;49.902;22.508;2022-09-02T07:26:59;99203.28;;;27.64;30.33
37634;BME280;32048;49.902;22.508;2022-09-02T07:29:26;99194.88;;;27.11;30.30
37634;BME280;32048;49.902;22.508;2022-09-02T07:31:53;99199.41;;;26.71;31.84
37634;BME280;32048;49.902;22.508;2022-09-02T07:34:20;99193.84;;;26.64;31.45
37634;BME280;32048;49.902;22.508;2022-09-02T07:36:47;99198.06;;;26.75;32.22
37634;BME280;32048;49.902;22.508;2022-09-02T07:39:16;99192.97;;;27.28;31.57
37634;BME280;32048;49.902;22.508;2022-09-02T07:41:46;99200.22;;;27.67;31.02
37634;BME280;32048;49.902;22.508;2022-09-02T07:44:14;99203.97;;;27.66;30.09
37634;BME280;32048;49.902;22.508;2022-09-02T07:46:42;99205.13;;;27.71;30.98
37634;BME280;32048;49.902;22.508;2022-09-02T07:49:13;99195.06;;;27.49;30.30
37634;BME280;32048;49.902;22.508;2022-09-02T07:51:43;99193.16;;;27.18;31.12
37634;BME280;32048;49.902;22.508;2022-09-02T07:54:17;99190.00;;;26.98;31.00
37634;BME280;32048;49.902;22.508;2022-09-02T07:56:44;99186.41;;;27.14;30.82
37634;BME280;32048;49.902;22.508;2022-09-02T07:59:11;99186.72;;;27.27;30.46
37634;BME280;32048;49.902;22.508;2022-09-02T08:01:38;99192.28;;;27.34;29.29
37634;BME280;32048;49.902;22.508;2022-09-02T08:04:05;99192.97;;;26.72;30.88
37634;BME280;32048;49.902;22.508;2022-09-02T08:06:32;99184.53;;;26.34;30.77
37634;BME280;32048;49.902;22.508;2022-09-02T08:09:03;99191.28;;;25.89;31.97
37634;BME280;32048;49.902;22.508;2022-09-02T08:11:31;99184.63;;;25.75;31.54
37634;BME280;32048;49.902;22.508;2022-09-02T08:14:00;99186.00;;;25.79;32.72
37634;BME280;32048;49.902;22.508;2022-09-02T08:16:29;99185.16;;;25.79;30.96
37634;BME280;32048;49.902;22.508;2022-09-02T08:18:56;99190.69;;;25.52;30.86
37634;BME280;32048;49.902;22.508;2022-09-02T08:21:23;99179.75;;;25.20;31.58
37634;BME280;32048;49.902;22.508;2022-09-02T08:23:53;99196.91;;;24.76;32.17
37634;BME280;32048;49.902;22.508;2022-09-02T08:26:20;99179.63;;;24.43;32.72
37634;BME280;32048;49.902;22.508;2022-09-02T08:28:48;99176.31;;;24.49;33.27
37634;BME280;32048;49.902;22.508;2022-09-02T08:31:15;99171.41;;;25.05;32.58
37634;BME280;32048;49.902;22.508;2022-09-02T08:33:43;99173.56;;;25.36;31.31
37634;BME280;32048;49.902;22.508;2022-09-02T08:36:10;99165.88;;;25.65;31.86
37634;BME280;32048;49.902;22.508;2022-09-02T08:38:41;99172.50;;;26.12;31.08
37634;BME280;32048;49.902;22.508;2022-09-02T08:43:51;99167.63;;;26.24;29.41
37634;BME280;32048;49.902;22.508;2022-09-02T08:46:20;99166.72;;;25.82;30.11
37634;BME280;32048;49.902;22.508;2022-09-02T08:48:55;99172.28;;;25.56;29.91
37634;BME280;32048;49.902;22.508;2022-09-02T08:51:52;99153.16;;;25.49;30.37
37634;BME280;32048;49.902;22.508;2022-09-02T08:54:46;99157.91;;;25.64;29.70
37634;BME280;32048;49.902;22.508;2022-09-02T08:57:14;99164.06;;;25.90;30.00
37634;BME280;32048;49.902;22.508;2022-09-02T08:59:41;99158.28;;;25.85;30.07
37634;BME280;32048;49.902;22.508;2022-09-02T09:08:09;99138.88;;;26.15;30.03
37634;BME280;32048;49.902;22.508;2022-09-02T09:14:05;99132.66;;;27.26;27.43
37634;BME280;32048;49.902;22.508;2022-09-02T09:16:54;99137.09;;;27.50;28.26
37634;BME280;32048;49.902;22.508;2022-09-02T09:19:41;99144.75;;;28.15;27.36
37634;BME280;32048;49.902;22.508;2022-09-02T09:22:16;99131.56;;;28.80;25.70
37634;BME280;32048;49.902;22.508;2022-09-02T09:24:48;99136.06;;;28.73;24.60
37634;BME280;32048;49.902;22.508;2022-09-02T09:27:20;99139.25;;;28.62;24.31
37634;BME280;32048;49.902;22.508;2022-09-02T09:29:49;99133.50;;;28.04;25.82
37634;BME280;32048;49.902;22.508;2022-09-02T09:32:30;99143.47;;;27.88;25.76
37634;BME280;32048;49.902;22.508;2022-09-02T09:35:07;99136.25;;;27.72;25.85
37634;BME280;32048;49.902;22.508;2022-09-02T09:37:36;99126.16;;;27.35;25.75
37634;BME280;32048;49.902;22.508;2022-09-02T09:42:49;99125.03;;;27.52;26.56
37634;BME280;32048;49.902;22.508;2022-09-02T09:45:26;99110.56;;;27.83;25.46
37634;BME280;32048;49.902;22.508;2022-09-02T09:53:28;99120.16;;;27.71;24.34
37634;BME280;32048;49.902;22.508;2022-09-02T09:55:58;99119.88;;;26.95;26.33
37634;BME280;32048;49.902;22.508;2022-09-02T09:58:48;99107.44;;;26.78;26.90
37634;BME280;32048;49.902;22.508;2022-09-02T10:01:34;99107.47;;;26.69;26.40
37634;BME280;32048;49.902;22.508;2022-09-02T10:04:08;99117.84;;;26.58;25.99
37634;BME280;32048;49.902;22.508;2022-09-02T10:06:56;99118.56;;;26.10;27.15
37634;BME280;32048;49.902;22.508;2022-09-02T10:09:33;99110.25;;;25.79;27.53
37634;BME280;32048;49.902;22.508;2022-09-02T10:14:51;99098.44;;;26.13;26.60
37634;BME280;32048;49.902;22.508;2022-09-02T10:20:38;99086.28;;;26.73;26.05
37634;BME280;32048;49.902;22.508;2022-09-02T10:31:51;99086.25;;;26.81;25.83
37634;BME280;32048;49.902;22.508;2022-09-02T10:34:39;99100.94;;;26.39;26.22
37634;BME280;32048;49.902;22.508;2022-09-02T10:37:24;99088.78;;;25.45;26.50
37634;BME280;32048;49.902;22.508;2022-09-02T10:43:00;99093.78;;;24.81;27.88
37634;BME280;32048;49.902;22.508;2022-09-02T10:48:16;99097.09;;;24.40;28.39
37634;BME280;32048;49.902;22.508;2022-09-02T10:50:54;99115.22;;;24.22;28.68
37634;BME280;32048;49.902;22.508;2022-09-02T10:56:04;99096.78;;;23.37;29.84
37634;BME280;32048;49.902;22.508;2022-09-02T11:00:59;99082.59;;;23.53;30.24
37634;BME280;32048;49.902;22.508;2022-09-02T11:03:32;99114.47;;;23.58;30.22
37634;BME280;32048;49.902;22.508;2022-09-02T11:06:14;99100.72;;;23.43;30.83
37634;BME280;32048;49.902;22.508;2022-09-02T11:08:55;99091.97;;;23.13;31.18
37634;BME280;32048;49.902;22.508;2022-09-02T11:11:33;99097.06;;;23.16;30.95
37634;BME280;32048;49.902;22.508;2022-09-02T11:16:51;99093.38;;;23.71;30.87
37634;BME280;32048;49.902;22.508;2022-09-02T11:19:54;99100.69;;;23.79;30.13
37634;BME280;32048;49.902;22.508;2022-09-02T11:25:26;99089.69;;;23.90;29.95
37634;BME280;32048;49.902;22.508;2022-09-02T11:28:26;99088.94;;;23.80;30.60
37634;BME280;32048;49.902;22.508;2022-09-02T11:30:56;99091.53;;;23.72;30.41
37634;BME280;32048;49.902;22.508;2022-09-02T11:33:37;99083.16;;;23.57;30.24
37634;BME280;32048;49.902;22.508;2022-09-02T11:36:09;99088.06;;;23.26;31.00
37634;BME280;32048;49.902;22.508;2022-09-02T11:38:53;99081.88;;;23.15;31.09
37634;BME280;32048;49.902;22.508;2022-09-02T11:44:15;99064.19;;;22.85;31.57
37634;BME280;32048;49.902;22.508;2022-09-02T11:53:28;99068.66;;;23.22;31.26
37634;BME280;32048;49.902;22.508;2022-09-02T11:56:16;99067.59;;;22.87;30.75
37634;BME280;32048;49.902;22.508;2022-09-02T11:58:49;99064.81;;;22.41;31.47
37634;BME280;32048;49.902;22.508;2022-09-02T12:01:35;99060.47;;;22.31;31.99
37634;BME280;32048;49.902;22.508;2022-09-02T12:09:48;99043.94;;;22.06;32.63
37634;BME280;32048;49.902;22.508;2022-09-02T12:17:38;99048.94;;;22.48;31.93
37634;BME280;32048;49.902;22.508;2022-09-02T12:22:54;99046.50;;;22.08;31.88
37634;BME280;32048;49.902;22.508;2022-09-02T12:28:14;99046.19;;;21.44;34.25
37634;BME280;32048;49.902;22.508;2022-09-02T12:33:50;99049.66;;;21.06;34.04
37634;BME280;32048;49.902;22.508;2022-09-02T12:47:48;99033.41;;;21.07;35.37
37634;BME280;32048;49.902;22.508;2022-09-02T12:50:26;99031.16;;;21.32;35.05
37634;BME280;32048;49.902;22.508;2022-09-02T12:58:44;99026.94;;;21.68;34.28
37634;BME280;32048;49.902;22.508;2022-09-02T13:01:16;99021.41;;;21.79;34.24
37634;BME280;32048;49.902;22.508;2022-09-02T13:09:33;99026.50;;;21.53;34.61
37634;BME280;32048;49.902;22.508;2022-09-02T13:24:05;99011.16;;;20.66;36.25
37634;BME280;32048;49.902;22.508;2022-09-02T13:32:28;99013.34;;;21.21;36.34
37634;BME280;32048;49.902;22.508;2022-09-02T13:34:57;99017.56;;;20.94;35.49
37634;BME280;32048;49.902;22.508;2022-09-02T13:40:27;98995.22;;;20.34;37.56
37634;BME280;32048;49.902;22.508;2022-09-02T13:42:56;99004.03;;;20.15;38.03
37634;BME280;32048;49.902;22.508;2022-09-02T13:45:34;99006.25;;;20.00;38.35
37634;BME280;32048;49.902;22.508;2022-09-02T13:48:06;98999.25;;;19.88;38.89
37634;BME280;32048;49.902;22.508;2022-09-02T13:50:35;99000.25;;;19.87;39.87
37634;BME280;32048;49.902;22.508;2022-09-02T13:53:05;99004.41;;;19.80;39.32
37634;BME280;32048;49.902;22.508;2022-09-02T13:55:55;98999.31;;;19.77;39.75
37634;BME280;32048;49.902;22.508;2022-09-02T14:01:15;99000.09;;;19.67;40.61
37634;BME280;32048;49.902;22.508;2022-09-02T14:03:55;99022.19;;;19.60;39.92
37634;BME280;32048;49.902;22.508;2022-09-02T14:06:25;99000.94;;;19.47;40.37
37634;BME280;32048;49.902;22.508;2022-09-02T14:09:02;99006.25;;;19.37;40.01
37634;BME280;32048;49.902;22.508;2022-09-02T14:11:37;99005.31;;;19.27;39.66
37634;BME280;32048;49.902;22.508;2022-09-02T14:14:05;99002.16;;;19.22;39.85
37634;BME280;32048;49.902;22.508;2022-09-02T14:16:34;98996.47;;;19.15;40.05
37634;BME280;32048;49.902;22.508;2022-09-02T14:19:22;99002.56;;;19.17;40.94
37634;BME280;32048;49.902;22.508;2022-09-02T14:21:52;99004.56;;;19.25;40.61
37634;BME280;32048;49.902;22.508;2022-09-02T14:24:20;99003.84;;;19.23;41.42
37634;BME280;32048;49.902;22.508;2022-09-02T14:26:50;99022.59;;;19.23;40.92
37634;BME280;32048;49.902;22.508;2022-09-02T14:29:19;99012.00;;;19.21;41.27
37634;BME280;32048;49.902;22.508;2022-09-02T14:32:05;99013.38;;;19.16;41.53
37634;BME280;32048;49.902;22.508;2022-09-02T14:34:45;99009.88;;;19.15;41.93
37634;BME280;32048;49.902;22.508;2022-09-02T14:37:26;99010.72;;;19.16;42.44
37634;BME280;32048;49.902;22.508;2022-09-02T14:40:10;99003.13;;;19.21;42.55
37634;BME280;32048;49.902;22.508;2022-09-02T14:42:48;98998.00;;;19.29;42.15
37634;BME280;32048;49.902;22.508;2022-09-02T14:45:28;99005.50;;;19.35;42.02
37634;BME280;32048;49.902;22.508;2022-09-02T14:47:59;99005.50;;;19.35;41.76
37634;BME280;32048;49.902;22.508;2022-09-02T14:50:31;99002.50;;;19.28;41.77
37634;BME280;32048;49.902;22.508;2022-09-02T14:53:08;99011.63;;;19.26;41.33
37634;BME280;32048;49.902;22.508;2022-09-02T14:55:44;98997.78;;;19.21;41.61
37634;BME280;32048;49.902;22.508;2022-09-02T14:58:11;99001.84;;;19.15;41.87
37634;BME280;32048;49.902;22.508;2022-09-02T15:00:38;99008.28;;;19.13;42.11
37634;BME280;32048;49.902;22.508;2022-09-02T15:03:05;99000.50;;;19.09;42.64
37634;BME280;32048;49.902;22.508;2022-09-02T15:05:33;99000.50;;;19.09;42.94
37634;BME280;32048;49.902;22.508;2022-09-02T15:08:00;99008.06;;;19.04;43.20
37634;BME280;32048;49.902;22.508;2022-09-02T15:10:27;99000.44;;;19.00;43.61
37634;BME280;32048;49.902;22.508;2022-09-02T15:12:55;99002.75;;;18.93;43.41
37634;BME280;32048;49.902;22.508;2022-09-02T15:15:23;98999.50;;;18.78;43.79
37634;BME280;32048;49.902;22.508;2022-09-02T15:17:50;99001.44;;;18.76;44.05
37634;BME280;32048;49.902;22.508;2022-09-02T15:20:17;99000.13;;;18.70;44.49